createdAt,value
2022-12-11T00:00:15.699Z,9.27
2022-12-11T00:02:14.129Z,9.21
2022-12-11T00:04:12.334Z,9.21
2022-12-11T00:06:12.304Z,9.26
2022-12-11T00:08:10.690Z,9.24
2022-12-11T00:10:09.667Z,9.20
2022-12-11T00:12:09.389Z,9.20
2022-12-11T00:14:08.947Z,9.26
2022-12-11T00:16:07.513Z,9.25
2022-12-11T00:18:05.731Z,9.27
2022-12-11T00:20:04.258Z,9.26
2022-12-11T00:22:02.767Z,9.34
2022-12-11T00:24:01.168Z,9.37
2022-12-11T00:25:59.499Z,9.38
2022-12-11T00:27:57.911Z,9.36
2022-12-11T00:29:57.516Z,9.32
2022-12-11T00:31:56.585Z,9.32
2022-12-11T00:33:54.904Z,9.40
2022-12-11T00:35:53.209Z,9.37
2022-12-11T00:37:51.471Z,9.32
2022-12-11T00:39:49.864Z,9.34
2022-12-11T00:41:48.149Z,9.45
2022-12-11T00:43:46.534Z,9.51
2022-12-11T00:45:48.348Z,9.52
2022-12-11T00:47:46.543Z,9.42
2022-12-11T00:49:49.577Z,9.41
2022-12-11T00:51:48.312Z,9.35
2022-12-11T00:53:46.783Z,9.40
2022-12-11T00:55:45.303Z,9.36
2022-12-11T00:57:43.774Z,9.43
2022-12-11T00:59:42.027Z,9.49
2022-12-11T01:01:41.724Z,9.49
2022-12-11T01:03:40.386Z,9.46
2022-12-11T01:05:38.556Z,9.49
2022-12-11T01:07:37.010Z,9.51
2022-12-11T01:09:52.927Z,9.47
2022-12-11T01:11:51.205Z,9.48
2022-12-11T01:13:49.593Z,9.58
2022-12-11T01:15:47.823Z,9.53
2022-12-11T01:17:47.718Z,9.53
2022-12-11T01:19:46.061Z,9.58
2022-12-11T01:21:44.252Z,9.63
2022-12-11T01:23:42.451Z,9.58
2022-12-11T01:25:41.377Z,9.53
2022-12-11T01:27:40.308Z,9.61
2022-12-11T01:29:38.698Z,9.62
2022-12-11T01:31:37.879Z,9.62
2022-12-11T01:33:37.613Z,9.53
2022-12-11T01:35:35.769Z,9.58
2022-12-11T01:37:34.566Z,9.94
2022-12-11T01:39:32.860Z,9.92
2022-12-11T01:41:31.113Z,9.84
2022-12-11T01:43:29.302Z,9.79
2022-12-11T01:45:33.303Z,9.75
2022-12-11T01:47:31.642Z,9.66
2022-12-11T01:49:31.412Z,9.63
2022-12-11T01:51:32.391Z,9.63
2022-12-11T01:53:34.672Z,9.55
2022-12-11T01:55:34.217Z,9.56
2022-12-11T01:57:32.489Z,9.59
2022-12-11T01:59:34.369Z,9.61
2022-12-11T02:01:36.187Z,9.66
2022-12-11T02:03:34.681Z,9.71
2022-12-11T02:05:34.483Z,9.76
2022-12-11T02:07:40.231Z,9.73
2022-12-11T02:09:40.708Z,9.80
2022-12-11T02:11:53.891Z,10.03
2022-12-11T02:13:58.668Z,10.14
2022-12-11T02:16:05.351Z,10.23
2022-12-11T02:18:18.346Z,10.19
2022-12-11T02:20:23.377Z,10.19
2022-12-11T02:22:35.173Z,10.16
2022-12-11T02:24:52.079Z,10.38
2022-12-11T02:27:19.316Z,10.42
2022-12-11T02:29:24.326Z,10.48
2022-12-11T02:31:28.124Z,10.53
2022-12-11T02:33:45.271Z,10.60
2022-12-11T02:35:45.388Z,10.56
2022-12-11T02:37:46.394Z,10.65
2022-12-11T02:39:47.375Z,10.67
2022-12-11T02:41:50.133Z,10.68
2022-12-11T02:43:49.710Z,10.62
2022-12-11T02:45:51.187Z,10.63
2022-12-11T02:47:50.381Z,10.49
2022-12-11T02:49:51.569Z,10.46
2022-12-11T02:51:52.331Z,10.27
2022-12-11T02:53:52.787Z,10.22
2022-12-11T02:55:55.869Z,10.23
2022-12-11T02:58:00.991Z,10.31
2022-12-11T02:59:59.398Z,10.39
2022-12-11T03:01:58.974Z,10.43
2022-12-11T03:04:01.430Z,10.43
2022-12-11T03:05:59.777Z,10.41
2022-12-11T03:07:58.086Z,10.43
2022-12-11T03:09:56.389Z,10.46
2022-12-11T03:11:54.763Z,10.62
2022-12-11T03:13:53.973Z,10.55
2022-12-11T03:16:05.498Z,10.60
2022-12-11T03:18:12.232Z,10.74
2022-12-11T03:20:17.814Z,10.93
2022-12-11T03:22:20.528Z,10.96
2022-12-11T03:24:24.098Z,11.29
2022-12-11T03:26:24.294Z,11.33
2022-12-11T03:28:28.114Z,11.40
2022-12-11T03:30:30.104Z,11.81
2022-12-11T03:32:32.432Z,11.88
2022-12-11T03:34:39.633Z,11.80
2022-12-11T03:36:40.555Z,11.93
2022-12-11T03:38:42.751Z,11.97
2022-12-11T03:40:43.400Z,12.03
2022-12-11T03:42:43.604Z,12.31
2022-12-11T03:44:44.001Z,12.42
2022-12-11T03:46:44.815Z,12.43
2022-12-11T03:48:46.797Z,12.50
2022-12-11T03:50:49.301Z,12.45
2022-12-11T03:52:49.430Z,12.41
2022-12-11T03:54:50.836Z,12.52
2022-12-11T03:56:52.565Z,12.58
2022-12-11T03:58:50.808Z,12.50
2022-12-11T04:00:49.083Z,12.56
2022-12-11T04:03:12.956Z,12.49
2022-12-11T04:05:13.167Z,12.44
2022-12-11T04:07:13.122Z,12.34
2022-12-11T04:09:11.568Z,12.38
2022-12-11T04:11:27.084Z,12.37
2022-12-11T04:13:25.433Z,12.32
2022-12-11T04:15:22.504Z,12.30
2022-12-11T04:17:34.622Z,12.25
2022-12-11T04:19:50.632Z,12.20
2022-12-11T04:22:06.035Z,12.13
2022-12-11T04:24:18.206Z,12.20
2022-12-11T04:26:19.924Z,12.25
2022-12-11T04:28:18.265Z,12.36
2022-12-11T04:30:19.729Z,12.62
2022-12-11T04:32:17.869Z,12.67
2022-12-11T04:34:16.074Z,12.62
2022-12-11T04:36:15.155Z,12.64
2022-12-11T04:38:13.328Z,12.61
2022-12-11T04:40:15.499Z,12.60
2022-12-11T04:42:13.718Z,12.62
2022-12-11T04:44:12.079Z,12.65
2022-12-11T04:46:12.427Z,12.68
2022-12-11T04:48:10.703Z,12.63
2022-12-11T04:50:11.298Z,12.69
2022-12-11T04:52:09.535Z,12.94
2022-12-11T04:54:07.830Z,12.82
2022-12-11T04:56:09.468Z,12.85
2022-12-11T04:58:07.789Z,13.06
2022-12-11T05:00:08.951Z,13.10
2022-12-11T05:02:07.303Z,13.23
2022-12-11T05:04:05.571Z,13.37
2022-12-11T05:06:04.113Z,13.20
2022-12-11T05:08:02.456Z,13.16
2022-12-11T05:10:00.666Z,13.18
2022-12-11T05:12:00.474Z,13.16
2022-12-11T05:13:58.766Z,13.15
2022-12-11T05:15:57.969Z,13.24
2022-12-11T05:17:56.170Z,13.57
2022-12-11T05:19:54.584Z,13.71
2022-12-11T05:21:53.057Z,13.77
2022-12-11T05:23:51.256Z,13.61
2022-12-11T05:25:53.397Z,13.48
2022-12-11T05:27:53.104Z,13.48
2022-12-11T05:29:54.869Z,13.52
2022-12-11T05:31:57.478Z,13.69
2022-12-11T05:33:55.998Z,13.66
2022-12-11T05:35:54.248Z,13.70
2022-12-11T05:37:52.499Z,13.89
2022-12-11T05:39:50.862Z,13.79
2022-12-11T05:41:49.034Z,13.79
2022-12-11T05:43:49.041Z,13.86
2022-12-11T05:45:47.242Z,13.69
2022-12-11T05:47:45.416Z,13.63
2022-12-11T05:49:43.950Z,13.39
2022-12-11T05:51:43.341Z,13.22
2022-12-11T05:53:42.907Z,13.13
2022-12-11T05:55:41.223Z,13.12
2022-12-11T05:57:39.495Z,13.02
2022-12-11T05:59:39.173Z,12.98
2022-12-11T06:01:39.369Z,12.94
2022-12-11T06:03:37.601Z,12.94
2022-12-11T06:05:39.199Z,12.92
2022-12-11T06:07:37.416Z,13.08
2022-12-11T06:09:35.693Z,13.14
2022-12-11T06:11:35.684Z,13.10
2022-12-11T06:13:34.434Z,13.09
2022-12-11T06:15:34.145Z,13.01
2022-12-11T06:17:32.300Z,12.92
2022-12-11T06:19:36.431Z,12.91
2022-12-11T06:21:35.387Z,13.19
2022-12-11T06:23:33.466Z,13.24
2022-12-11T06:25:32.194Z,13.23
2022-12-11T06:27:30.401Z,13.29
2022-12-11T06:29:28.668Z,13.37
2022-12-11T06:31:28.898Z,13.27
2022-12-11T06:33:27.157Z,13.25
2022-12-11T06:35:25.466Z,13.34
2022-12-11T06:37:23.615Z,13.32
2022-12-11T06:39:21.803Z,13.31
2022-12-11T06:41:20.356Z,13.35
2022-12-11T06:43:18.493Z,13.38
2022-12-11T06:45:16.699Z,13.44
2022-12-11T06:47:16.437Z,13.38
2022-12-11T06:49:14.653Z,13.27
2022-12-11T06:51:14.752Z,13.20
2022-12-11T06:53:14.223Z,13.26
2022-12-11T06:55:12.888Z,13.29
2022-12-11T06:57:11.462Z,13.31
2022-12-11T06:59:12.866Z,13.45
2022-12-11T07:01:17.273Z,13.54
2022-12-11T07:03:16.904Z,13.58
2022-12-11T07:05:15.238Z,13.73
2022-12-11T07:07:13.558Z,13.74
2022-12-11T07:09:11.702Z,13.79
2022-12-11T07:11:12.610Z,13.84
2022-12-11T07:13:10.944Z,13.86
2022-12-11T07:15:10.430Z,13.90
2022-12-11T07:17:08.905Z,13.92
2022-12-11T07:19:08.410Z,13.91
2022-12-11T07:21:07.465Z,13.91
2022-12-11T07:23:05.678Z,14.00
2022-12-11T07:25:04.113Z,14.04
2022-12-11T07:27:02.295Z,14.21
2022-12-11T07:29:01.283Z,14.40
2022-12-11T07:30:59.498Z,14.36
2022-12-11T07:32:57.795Z,14.32
2022-12-11T07:34:57.509Z,14.34
2022-12-11T07:36:55.801Z,14.40
2022-12-11T07:38:54.121Z,14.51
2022-12-11T07:40:52.452Z,14.47
2022-12-11T07:42:50.664Z,14.37
2022-12-11T07:44:48.804Z,14.31
2022-12-11T07:46:47.111Z,14.28
2022-12-11T07:48:48.702Z,14.21
2022-12-11T07:50:48.386Z,14.14
2022-12-11T07:52:46.653Z,14.04
2022-12-11T07:54:44.818Z,14.05
2022-12-11T07:56:44.053Z,14.04
2022-12-11T07:58:42.356Z,14.06
2022-12-11T08:00:40.644Z,14.11
2022-12-11T08:02:39.104Z,14.11
2022-12-11T08:04:37.417Z,14.11
2022-12-11T08:06:39.306Z,14.23
2022-12-11T08:08:37.853Z,14.54
2022-12-11T08:10:36.007Z,14.60
2022-12-11T08:12:34.300Z,14.64
2022-12-11T08:14:32.581Z,14.65
2022-12-11T08:16:30.923Z,14.72
2022-12-11T08:18:29.153Z,14.76
2022-12-11T08:20:27.468Z,14.69
2022-12-11T08:22:27.208Z,14.78
2022-12-11T08:24:25.535Z,14.76
2022-12-11T08:26:25.420Z,14.75
2022-12-11T08:28:23.613Z,14.69
2022-12-11T08:30:21.805Z,14.64
2022-12-11T08:32:20.120Z,14.68
2022-12-11T08:34:18.346Z,14.53
2022-12-11T08:36:19.038Z,14.62
2022-12-11T08:38:23.674Z,14.75
2022-12-11T08:40:23.453Z,14.87
2022-12-11T08:42:21.849Z,14.99
2022-12-11T08:44:19.994Z,15.01
2022-12-11T08:46:18.329Z,14.94
2022-12-11T08:48:16.748Z,14.84
2022-12-11T08:50:14.929Z,14.79
2022-12-11T08:52:13.301Z,14.83
2022-12-11T08:54:13.069Z,14.78
2022-12-11T08:56:13.295Z,14.67
2022-12-11T08:58:11.601Z,14.53
2022-12-11T09:00:13.486Z,14.32
2022-12-11T09:02:13.496Z,14.32
2022-12-11T09:04:11.871Z,14.09
2022-12-11T09:06:12.468Z,13.88
2022-12-11T09:08:10.656Z,13.89
2022-12-11T09:10:11.307Z,13.98
2022-12-11T09:12:09.598Z,14.14
2022-12-11T09:14:08.489Z,14.40
2022-12-11T09:16:08.171Z,14.55
2022-12-11T09:18:06.764Z,14.85
2022-12-11T09:20:06.085Z,14.94
2022-12-11T09:22:04.407Z,14.95
2022-12-11T09:24:03.033Z,14.95
2022-12-11T09:26:05.257Z,16.70
2022-12-11T09:28:03.538Z,19.09
2022-12-11T09:30:01.771Z,20.74
2022-12-11T09:32:00.212Z,20.74
2022-12-11T09:34:00.771Z,20.66
2022-12-11T09:35:59.967Z,19.18
2022-12-11T09:37:58.152Z,20.52
2022-12-11T09:39:56.377Z,20.02
2022-12-11T09:42:02.501Z,19.48
2022-12-11T09:44:07.778Z,18.91
2022-12-11T09:46:10.894Z,17.90
2022-12-11T09:48:12.522Z,17.61
2022-12-11T09:50:16.928Z,19.38
2022-12-11T09:52:18.685Z,21.86
2022-12-11T09:54:17.063Z,23.78
2022-12-11T09:56:20.745Z,24.15
2022-12-11T09:58:29.507Z,22.19
2022-12-11T10:00:32.534Z,22.54
2022-12-11T10:02:42.880Z,23.72
2022-12-11T10:04:54.600Z,23.64
2022-12-11T10:07:05.013Z,21.68
2022-12-11T10:09:13.826Z,19.01
2022-12-11T10:11:33.179Z,18.67
2022-12-11T10:13:43.835Z,18.14
2022-12-11T10:15:50.550Z,17.79
2022-12-11T10:17:49.293Z,17.34
2022-12-11T10:19:48.069Z,16.77
2022-12-11T10:21:47.176Z,16.32
2022-12-11T10:23:52.448Z,16.15
2022-12-11T10:25:55.859Z,16.19
2022-12-11T10:27:54.160Z,15.80
2022-12-11T10:30:08.931Z,15.48
2022-12-11T10:32:17.146Z,15.38
2022-12-11T10:34:26.121Z,15.20
2022-12-11T10:36:29.722Z,15.17
2022-12-11T10:38:30.494Z,15.11
2022-12-11T10:40:32.497Z,15.21
2022-12-11T10:42:30.764Z,16.47
2022-12-11T10:44:30.570Z,18.67
2022-12-11T10:46:33.092Z,20.76
2022-12-11T10:48:31.737Z,21.55
2022-12-11T10:50:29.993Z,22.84
2022-12-11T10:52:32.548Z,24.08
2022-12-11T10:54:35.062Z,24.51
2022-12-11T10:56:35.331Z,25.78
2022-12-11T10:58:35.217Z,26.25
2022-12-11T11:00:37.787Z,25.98
2022-12-11T11:02:40.326Z,24.84
2022-12-11T11:04:40.272Z,24.45
2022-12-11T11:06:38.579Z,23.95
2022-12-11T11:08:42.659Z,22.92
2022-12-11T11:10:50.746Z,22.49
2022-12-11T11:12:50.936Z,21.54
2022-12-11T11:14:59.834Z,20.12
2022-12-11T11:17:02.227Z,18.82
2022-12-11T11:19:01.846Z,17.87
2022-12-11T11:21:01.119Z,17.36
2022-12-11T11:23:02.816Z,16.97
2022-12-11T11:25:01.469Z,16.74
2022-12-11T11:27:15.215Z,16.40
2022-12-11T11:29:26.951Z,16.16
2022-12-11T11:31:34.076Z,16.07
2022-12-11T11:33:34.631Z,15.97
2022-12-11T11:35:34.484Z,15.88
2022-12-11T11:37:34.483Z,16.03
2022-12-11T11:39:37.108Z,16.22
2022-12-11T11:41:44.598Z,16.30
2022-12-11T11:43:46.506Z,16.31
2022-12-11T11:45:48.847Z,16.22
2022-12-11T11:47:58.249Z,16.05
2022-12-11T11:50:07.238Z,15.83
2022-12-11T11:52:15.270Z,15.93
2022-12-11T11:54:25.350Z,15.91
2022-12-11T11:56:27.168Z,15.84
2022-12-11T11:58:29.459Z,15.73
2022-12-11T12:00:33.697Z,15.56
2022-12-11T12:02:32.586Z,15.40
2022-12-11T12:04:35.112Z,15.21
2022-12-11T12:06:50.584Z,15.07
2022-12-11T12:09:03.904Z,14.98
2022-12-11T12:11:08.170Z,14.87
2022-12-11T12:13:30.125Z,14.54
2022-12-11T12:15:40.353Z,14.10
2022-12-11T12:17:55.388Z,13.62
2022-12-11T12:20:05.772Z,13.12
2022-12-11T12:22:11.206Z,12.82
2022-12-11T12:24:26.150Z,12.43
2022-12-11T12:26:29.030Z,11.90
2022-12-11T12:28:37.541Z,11.50
2022-12-11T12:30:46.550Z,10.98
2022-12-11T12:32:54.223Z,10.60
2022-12-11T12:35:12.030Z,10.20
2022-12-11T12:37:22.528Z,9.93
2022-12-11T12:39:31.154Z,9.59
2022-12-11T12:41:42.518Z,9.04
2022-12-11T12:44:01.999Z,9.03
2022-12-11T12:46:09.662Z,8.81
2022-12-11T12:48:09.875Z,8.69
2022-12-11T12:50:14.888Z,8.48
2022-12-11T12:52:17.685Z,8.45
2022-12-11T12:54:18.955Z,8.25
2022-12-11T12:56:19.066Z,8.03
2022-12-11T12:58:28.831Z,7.88
2022-12-11T13:00:29.154Z,7.75
2022-12-11T13:02:27.760Z,7.43
2022-12-11T13:06:54.975Z,6.96
2022-12-11T13:08:53.371Z,7.00
2022-12-11T13:11:01.944Z,6.94
2022-12-11T13:13:02.984Z,6.89
2022-12-11T13:15:02.025Z,6.64
2022-12-11T13:17:08.803Z,6.77
2022-12-11T13:19:18.541Z,6.79
2022-12-11T13:21:29.462Z,6.71
2022-12-11T13:23:30.313Z,6.62
2022-12-11T13:25:30.735Z,6.56
2022-12-11T13:27:39.298Z,6.49
2022-12-11T13:29:41.368Z,6.50
2022-12-11T13:31:41.378Z,6.51
2022-12-11T13:33:44.231Z,6.36
2022-12-11T13:35:42.692Z,6.28
2022-12-11T13:37:42.768Z,6.19
2022-12-11T13:39:41.650Z,6.11
2022-12-11T13:41:40.185Z,6.06
2022-12-11T13:43:41.985Z,6.14
2022-12-11T13:45:48.509Z,6.19
2022-12-11T13:47:47.725Z,6.05
2022-12-11T13:49:53.291Z,5.92
2022-12-11T13:52:00.784Z,5.94
2022-12-11T13:54:17.199Z,5.89
2022-12-11T13:56:20.633Z,5.83
2022-12-11T13:58:21.829Z,5.85
2022-12-11T14:00:23.917Z,5.68
2022-12-11T14:02:27.609Z,5.69
2022-12-11T14:04:30.040Z,5.61
2022-12-11T14:06:32.008Z,5.47
2022-12-11T14:08:36.409Z,5.52
2022-12-11T14:10:34.698Z,5.41
2022-12-11T14:12:33.991Z,5.32
2022-12-11T14:14:42.675Z,5.29
2022-12-11T14:16:41.019Z,5.32
2022-12-11T14:18:40.788Z,5.26
2022-12-11T14:20:38.978Z,5.08
2022-12-11T14:22:37.165Z,5.02
2022-12-11T14:24:35.918Z,5.05
2022-12-11T14:26:38.075Z,5.06
2022-12-11T14:28:40.156Z,5.12
2022-12-11T14:30:40.477Z,5.16
2022-12-11T14:32:44.804Z,5.13
2022-12-11T14:34:47.432Z,4.99
2022-12-11T14:36:47.874Z,4.98
2022-12-11T14:38:49.463Z,5.00
2022-12-11T14:40:53.412Z,4.86
2022-12-11T14:43:00.127Z,4.76
2022-12-11T14:45:09.864Z,4.62
2022-12-11T14:47:15.608Z,4.63
2022-12-11T14:49:22.413Z,4.54
2022-12-11T14:51:22.176Z,4.55
2022-12-11T14:53:23.320Z,4.59
2022-12-11T14:55:26.236Z,4.54
2022-12-11T14:57:27.655Z,4.44
2022-12-11T14:59:31.843Z,4.32
2022-12-11T15:01:32.969Z,4.40
2022-12-11T15:03:36.215Z,4.34
2022-12-11T15:05:40.862Z,4.24
2022-12-11T15:07:42.286Z,4.26
2022-12-11T15:09:42.516Z,4.23
2022-12-11T15:11:40.811Z,4.31
2022-12-11T15:13:49.950Z,4.30
2022-12-11T15:15:48.978Z,4.34
2022-12-11T15:17:52.662Z,4.30
2022-12-11T15:19:54.265Z,4.16
2022-12-11T15:21:53.349Z,4.28
2022-12-11T15:23:56.183Z,4.37
2022-12-11T15:25:58.197Z,4.36
2022-12-11T15:27:58.816Z,4.30
2022-12-11T15:29:57.374Z,4.22
2022-12-11T15:32:03.690Z,4.28
2022-12-11T15:34:02.856Z,4.23
2022-12-11T15:36:03.761Z,4.12
2022-12-11T15:38:02.158Z,4.15
2022-12-11T15:40:04.465Z,4.12
2022-12-11T15:42:03.108Z,4.03
2022-12-11T15:44:03.215Z,3.97
2022-12-11T15:46:03.150Z,3.94
2022-12-11T15:48:01.484Z,3.93
2022-12-11T15:50:02.590Z,3.96
2022-12-11T15:52:00.897Z,4.04
2022-12-11T15:53:59.207Z,3.98
2022-12-11T15:56:00.804Z,3.99
2022-12-11T15:58:02.479Z,4.04
2022-12-11T16:00:01.329Z,4.08
2022-12-11T16:01:59.839Z,4.08
2022-12-11T16:04:04.562Z,3.98
2022-12-11T16:06:03.629Z,3.96
2022-12-11T16:08:02.012Z,3.90
2022-12-11T16:10:00.370Z,3.96
2022-12-11T16:12:00.186Z,4.00
2022-12-11T16:13:58.993Z,3.94
2022-12-11T16:15:58.520Z,3.97
2022-12-11T16:18:04.855Z,3.98
2022-12-11T16:20:03.335Z,4.02
2022-12-11T16:22:01.970Z,3.95
2022-12-11T16:24:00.166Z,3.98
2022-12-11T16:25:58.448Z,3.90
2022-12-11T16:27:59.451Z,3.80
2022-12-11T16:29:58.865Z,3.85
2022-12-11T16:31:57.228Z,3.84
2022-12-11T16:33:55.387Z,3.80
2022-12-11T16:35:53.720Z,3.67
2022-12-11T16:37:52.711Z,3.81
2022-12-11T16:39:50.879Z,3.77
2022-12-11T16:41:51.505Z,3.72
2022-12-11T16:43:51.202Z,3.73
2022-12-11T16:45:55.802Z,3.72
2022-12-11T16:47:54.380Z,3.68
2022-12-11T16:49:52.889Z,3.71
2022-12-11T16:51:53.790Z,3.63
2022-12-11T16:53:53.773Z,3.55
2022-12-11T16:55:52.767Z,3.47
2022-12-11T16:57:51.052Z,3.43
2022-12-11T16:59:50.722Z,3.44
2022-12-11T17:01:50.724Z,3.41
2022-12-11T17:03:48.996Z,3.47
2022-12-11T17:05:50.440Z,3.55
2022-12-11T17:07:48.748Z,3.63
2022-12-11T17:09:47.328Z,3.65
2022-12-11T17:11:46.621Z,3.68
2022-12-11T17:13:45.241Z,3.69
2022-12-11T17:15:46.385Z,3.70
2022-12-11T17:17:44.820Z,3.65
2022-12-11T17:19:43.178Z,3.65
2022-12-11T17:21:44.723Z,3.60
2022-12-11T17:23:45.646Z,3.45
2022-12-11T17:25:44.638Z,3.30
2022-12-11T17:27:42.917Z,3.28
2022-12-11T17:29:41.187Z,3.23
2022-12-11T17:31:41.525Z,3.24
2022-12-11T17:33:39.844Z,3.35
2022-12-11T17:35:41.212Z,3.47
2022-12-11T17:37:39.651Z,3.40
2022-12-11T17:39:38.289Z,3.27
2022-12-11T17:41:36.530Z,3.15
2022-12-11T17:43:35.150Z,2.87
2022-12-11T17:45:33.305Z,2.89
2022-12-11T17:47:33.124Z,2.91
2022-12-11T17:49:31.416Z,2.96
2022-12-11T17:51:29.611Z,3.01
2022-12-11T17:53:27.951Z,3.01
2022-12-11T17:55:26.228Z,2.89
2022-12-11T17:57:24.635Z,2.89
2022-12-11T17:59:22.905Z,2.92
2022-12-11T18:01:21.373Z,2.92
2022-12-11T18:03:21.345Z,2.83
2022-12-11T18:05:19.754Z,2.72
2022-12-11T18:07:19.253Z,2.53
2022-12-11T18:09:17.515Z,2.50
2022-12-11T18:11:17.634Z,2.48
2022-12-11T18:13:16.063Z,2.40
2022-12-11T18:15:15.104Z,2.36
2022-12-11T18:17:13.850Z,2.40
2022-12-11T18:19:14.172Z,2.50
2022-12-11T18:21:14.415Z,2.49
2022-12-11T18:23:12.751Z,2.53
2022-12-11T18:25:13.012Z,2.53
2022-12-11T18:27:14.445Z,2.42
2022-12-11T18:29:12.759Z,2.27
2022-12-11T18:31:11.722Z,2.20
2022-12-11T18:33:10.230Z,2.14
2022-12-11T18:35:11.410Z,2.16
2022-12-11T18:37:09.883Z,2.20
2022-12-11T18:39:08.229Z,2.21
2022-12-11T18:41:10.372Z,2.16
2022-12-11T18:43:10.608Z,2.10
2022-12-11T18:45:10.702Z,2.09
2022-12-11T18:47:09.685Z,2.06
2022-12-11T18:49:08.723Z,2.09
2022-12-11T18:51:11.075Z,2.01
2022-12-11T18:53:09.286Z,1.95
2022-12-11T18:55:11.274Z,1.90
2022-12-11T18:57:09.763Z,1.89
2022-12-11T18:59:08.229Z,1.97
2022-12-11T19:01:10.699Z,2.00
2022-12-11T19:03:10.088Z,2.07
2022-12-11T19:05:09.272Z,2.16
2022-12-11T19:07:08.972Z,2.17
2022-12-11T19:09:09.342Z,2.16
2022-12-11T19:11:10.673Z,2.06
2022-12-11T19:13:09.050Z,2.04
2022-12-11T19:15:08.403Z,1.98
2022-12-11T19:17:06.780Z,1.93
2022-12-11T19:19:07.449Z,1.93
2022-12-11T19:21:12.473Z,1.88
2022-12-11T19:23:13.108Z,1.80
2022-12-11T19:25:12.162Z,1.71
2022-12-11T19:27:13.621Z,1.68
2022-12-11T19:29:20.442Z,1.78
2022-12-11T19:31:21.011Z,1.74
2022-12-11T19:33:19.410Z,1.73
2022-12-11T19:35:18.426Z,1.76
2022-12-11T19:37:16.887Z,1.81
2022-12-11T19:39:16.819Z,1.72
2022-12-11T19:41:17.772Z,1.66
2022-12-11T19:43:16.294Z,1.63
2022-12-11T19:45:14.878Z,1.54
2022-12-11T19:47:13.306Z,1.54
2022-12-11T19:49:12.844Z,1.53
2022-12-11T19:51:13.501Z,1.53
2022-12-11T19:53:11.633Z,1.50
2022-12-11T19:55:13.635Z,1.49
2022-12-11T19:57:12.196Z,1.37
2022-12-11T19:59:16.704Z,1.38
2022-12-11T20:01:22.407Z,1.35
2022-12-11T20:03:21.257Z,1.31
2022-12-11T20:05:19.906Z,1.29
2022-12-11T20:07:18.639Z,1.37
2022-12-11T20:09:17.309Z,1.38
2022-12-11T20:11:19.018Z,1.33
2022-12-11T20:13:17.739Z,1.37
2022-12-11T20:15:19.541Z,1.34
2022-12-11T20:17:17.874Z,1.37
2022-12-11T20:19:16.468Z,1.42
2022-12-11T20:21:17.112Z,1.42
2022-12-11T20:23:15.390Z,1.37
2022-12-11T20:25:14.201Z,1.39
2022-12-11T20:27:14.369Z,1.46
2022-12-11T20:29:13.753Z,1.48
2022-12-11T20:31:19.684Z,1.51
2022-12-11T20:33:19.807Z,1.53
2022-12-11T20:35:22.320Z,1.53
2022-12-11T20:37:23.348Z,1.46
2022-12-11T20:39:24.461Z,1.49
2022-12-11T20:41:24.867Z,1.58
2022-12-11T20:43:24.481Z,1.56
2022-12-11T20:45:22.707Z,1.61
2022-12-11T20:47:21.366Z,1.64
2022-12-11T20:49:22.502Z,1.70
2022-12-11T20:51:26.055Z,1.85
2022-12-11T20:53:24.707Z,1.80
2022-12-11T20:55:24.374Z,1.81
2022-12-11T20:57:22.646Z,1.84
2022-12-11T20:59:22.523Z,1.82
2022-12-11T21:01:23.604Z,1.80
2022-12-11T21:03:21.751Z,1.81
2022-12-11T21:05:20.212Z,1.81
2022-12-11T21:07:18.515Z,1.93
2022-12-11T21:09:17.901Z,1.98
2022-12-11T21:11:16.166Z,1.98
2022-12-11T21:13:14.411Z,2.07
2022-12-11T21:15:14.584Z,2.09
2022-12-11T21:17:12.959Z,2.12
2022-12-11T21:19:16.704Z,2.29
2022-12-11T21:21:16.390Z,2.40
2022-12-11T21:23:14.664Z,2.54
2022-12-11T21:25:13.503Z,2.52
2022-12-11T21:27:12.117Z,2.57
2022-12-11T21:29:10.503Z,2.60
2022-12-11T21:31:14.428Z,2.59
2022-12-11T21:33:13.051Z,2.54
2022-12-11T21:35:11.922Z,2.46
2022-12-11T21:37:10.915Z,2.37
2022-12-11T21:39:11.928Z,2.35
2022-12-11T21:41:11.121Z,2.27
2022-12-11T21:43:09.250Z,2.28
2022-12-11T21:47:28.935Z,2.30
2022-12-11T21:49:27.125Z,2.38
2022-12-11T21:51:31.072Z,2.51
2022-12-11T21:53:34.274Z,2.51
2022-12-11T21:55:33.158Z,2.44
2022-12-11T21:57:31.332Z,2.42
2022-12-11T21:59:30.589Z,2.43
2022-12-11T22:01:32.343Z,2.33
2022-12-11T22:03:33.933Z,2.34
2022-12-11T22:05:32.184Z,2.32
2022-12-11T22:07:30.445Z,2.30
2022-12-11T22:09:28.777Z,2.25
2022-12-11T22:11:29.348Z,2.22
2022-12-11T22:13:27.841Z,2.25
2022-12-11T22:15:26.168Z,2.26
2022-12-11T22:17:24.927Z,2.22
2022-12-11T22:19:29.071Z,2.18
2022-12-11T22:21:30.596Z,2.23
2022-12-11T22:23:28.922Z,2.23
2022-12-11T22:25:27.120Z,2.19
2022-12-11T22:27:25.508Z,2.11
2022-12-11T22:29:25.277Z,2.14
2022-12-11T22:31:27.172Z,2.10
2022-12-11T22:33:25.792Z,2.11
2022-12-11T22:35:27.313Z,2.17
2022-12-11T22:37:26.383Z,2.15
2022-12-11T22:39:25.604Z,2.19
2022-12-11T22:41:26.872Z,2.31
2022-12-11T22:43:25.244Z,2.35
2022-12-11T22:45:23.557Z,2.38
2022-12-11T22:47:21.876Z,2.43
2022-12-11T22:49:20.808Z,2.47
2022-12-11T22:51:21.305Z,2.44
2022-12-11T22:53:19.483Z,2.44
2022-12-11T22:55:17.693Z,2.40
2022-12-11T22:57:16.046Z,2.46
2022-12-11T22:59:14.238Z,2.50
2022-12-11T23:01:15.184Z,2.54
2022-12-11T23:03:13.414Z,2.55
2022-12-11T23:05:12.600Z,2.53
2022-12-11T23:07:12.343Z,2.53
2022-12-11T23:09:11.756Z,2.49
2022-12-11T23:11:15.152Z,2.50
2022-12-11T23:13:13.502Z,2.59
2022-12-11T23:15:12.331Z,2.60
2022-12-11T23:17:10.969Z,2.61
2022-12-11T23:19:09.256Z,2.59
2022-12-11T23:21:07.751Z,2.63
2022-12-11T23:23:07.399Z,2.58
2022-12-11T23:25:08.735Z,2.57
2022-12-11T23:27:07.098Z,2.59
2022-12-11T23:29:06.631Z,2.67
2022-12-11T23:31:04.977Z,2.68
2022-12-11T23:33:03.260Z,2.63
2022-12-11T23:35:01.438Z,2.54
2022-12-11T23:37:00.950Z,2.51
2022-12-11T23:39:00.569Z,2.44
2022-12-11T23:41:00.233Z,2.47
2022-12-11T23:42:58.833Z,2.44
2022-12-11T23:44:57.321Z,2.47
2022-12-11T23:46:55.569Z,2.43
2022-12-11T23:48:54.595Z,2.43
2022-12-11T23:50:52.987Z,2.44
2022-12-11T23:52:52.230Z,2.46
2022-12-11T23:54:51.944Z,2.41
2022-12-11T23:56:50.173Z,2.49
2022-12-11T23:58:48.870Z,2.53
